Christchurch, New Zealand

1:20 AM NZDT on February 13, 2016 (GMT +1300)
Christchurch International | | Change Station
CLOSE
Current Station
Airport
Location: Christchurch,
Elevation: 125 ft
Nearby Weather Stations

Elev 125 ft 43.48 °S, 172.55 °E | Updated 20 minutes ago

Mostly Cloudy
Mostly Cloudy
63 °F
Feels Like 63 °F
N
2
Wind Variable Wind from North

Today
High -- | Low -- °F
--% Chance of Precip.
Yesterday
High -- | Low -- °F
Precip. -- in
Pressure 30.12 in
Visibility 6.2 miles
Clouds Mostly Cloudy 2300 ft
Mostly Cloudy 2900 ft
Dew Point 57 °F
Humidity 82%
Rainfall 0.00 in
Snow Depth Not available.
6:45 AM 8:41 PM
Waxing Crescent, 20% visible
METAR NZCH 121200Z AUTO 36002KT 9999 BKN023/// BKN029/// 17/14 Q1020 TEMPO BKN014
Pressure 30.12 in
Visibility 6.2 miles
Clouds Mostly Cloudy 2300 ft
Mostly Cloudy 2900 ft
Dew Point 57 °F
Humidity 82%
Rainfall 0.00 in
Snow Depth Not available.
6:45 AM 8:41 PM
Waxing Crescent, 20% visible
METAR NZCH 121200Z AUTO 36002KT 9999 BKN023/// BKN029/// 17/14 Q1020 TEMPO BKN014

10-Day Weather Forecast

No radar image for this location.
×

Almanac

Astronomy

Feb. 13, 2016 Rise Set
Actual Time
Civil Twilight
Nautical Twilight
Astronomical Twilight
Moon
Length of Visible Light
Length of Day
Tomorrow will be .
, % of the Moon is Illuminated

Today's Extremes

Country Highs Country Lows

Community

WunderPhotos

Upload Photos

1,892,295 photos uploaded!

WunderBlog® & News

Nearby

Air Quality

  Air Quality AQ Index Pollutant
Not available.

Snow Depth

Station Depth Elevation

Earthquake Activity

City Distance Mag. Time & Date
Minimum magnitude displayed is 2.5.

Coastal Water Temperatures

Place Temperature

Stations

Nearby Weather Stations

Station Location Temp. Windchill Dew Point Humidity Wind Precip. Elev Updated Type